SBPV/PVH METAR and TAF weather

Enter ICAO airport designator
Station Type Date Time Source
SBPV METAR 2021/09/16 11:00 UTC NOAA

SBPV 161100Z 00000KT 6000 NSC 23/22 Q1015


Station Type Date Time Source
SBPV Decoded METAR 2021/09/16 11:00 UTC NOAA

Porto Velho Aeroporto , Brazil (SBPV) 08-46S 063-55W 102M
Sep 16, 2021 - 07:00 AM EDT / 2021.09.16 1100 UTC
Wind: Calm:0
Visibility: 3 mile(s):0
Temperature: 73 F (23 C)
Dew Point: 71 F (22 C)
Relative Humidity: 94%
Pressure (altimeter): 29.97 in. Hg (1015 hPa)
ob: SBPV 161100Z 00000KT 6000 NSC 23/22 Q1015
cycle: 11

Station Type Date Time Source
SBPV TAF 2021/09/16 12:03 UTC NOAA

TAF SBPV 160900Z 1612/1712 17005KT 9999 FEW035 TX32/1618Z TN23/1709Z PROB40 1618/1621 TS SCT023 FEW030CB
BECMG 1622/1624 21005KT
BECMG 1707/1709 00000KT 6000 SCT016
RMK PGU

Example: see airport list